Latest Weather Observations for Applethorpe

IDQ60801

Issued at 8:32 am EST Thursday 29 June 2017 (issued every 30 minutes, with the page automatically refreshed every 10 minutes)

About weather observations | Map of weather stations | Latest weather observations for QLD | Other Formats
Station Details ID: 041175 Name: APPLETHORPE Lat: -28.62 Lon: 151.95 Height: 871.6 m
Data from the previous 72 hours. | See also: Recent months at Applethorpe
Date/Time
EST
Temp
°C
App
Temp
°C
Dew
Point
°C
Rel
Hum
%
Delta-T
°C
Wind Press
QNH
hPa
Press
MSL
hPa
Rain since
9am
mm
Dir  Spd
km/h
Gust
km/h
Spd
kts
Gust
kts
29/08:30am 13.2 11.3 10.4 83 1.5 N 11 19 6 10 1022.9 1022.8 0.4
29/08:00am 12.7 10.4 10.3 85 1.3 N 13 22 7 12 1022.7 1022.5 0.4
29/07:30am 12.5 9.9 10.7 89 1.0 N 15 26 8 14 1022.8 1022.6 0.4
29/07:00am 12.4 9.8 10.7 89 0.9 N 15 22 8 12 1022.6 1022.4 0.4
29/06:30am 12.4 10.6 10.9 90 0.8 N 11 22 6 12 1022.7 1022.5 0.4
29/06:00am 12.5 10.7 11.0 90 0.8 N 11 19 6 10 1022.7 1022.5 0.4
29/05:30am 12.5 10.4 11.0 90 0.8 N 13 24 7 13 1022.6 1022.4 0.4
29/05:00am 12.5 10.4 11.2 92 0.7 N 13 22 7 12 1022.3 1022.1 0.2
29/04:30am 12.6 10.9 11.3 92 0.7 N 11 22 6 12 1022.4 1022.2 0.2
29/04:00am 12.7 10.2 11.2 91 0.8 N 15 26 8 14 1022.4 1022.2 0.2
29/03:30am 12.8 10.4 11.3 91 0.8 N 15 24 8 13 1022.5 1022.3 0.2
29/03:00am 12.9 10.6 11.6 92 0.7 N 15 26 8 14 1022.7 1022.5 0.2
29/02:30am 12.9 10.2 11.8 93 0.6 N 17 24 9 13 1022.8 1022.6 0.2
29/02:00am 13.0 10.7 11.7 92 0.7 N 15 24 8 13 1023.0 1022.9 0.2
29/01:30am 13.2 10.9 11.8 91 0.8 N 15 24 8 13 1023.2 1023.1 0.2
29/01:00am 13.1 10.8 11.8 92 0.7 N 15 26 8 14 1023.4 1023.2 0.2
29/12:30am 13.0 11.1 11.7 92 0.7 N 13 22 7 12 1023.7 1023.5 0.2
29/12:00am 12.7 11.4 11.4 92 0.7 N 9 15 5 8 1023.8 1023.6 0.2
 
Date/Time
EST
Temp
°C
App
Temp
°C
Dew
Point
°C
Rel
Hum
%
Delta-T
°C
Wind Press
QNH
hPa
Press
MSL
hPa
Rain since
9am
mm
Dir  Spd
km/h
Gust
km/h
Spd
kts
Gust
kts
28/11:30pm 13.1 11.9 11.7 91 0.8 N 9 15 5 8 1024.2 1024.1 0.2
28/11:00pm 13.3 12.1 11.5 89 1.0 N 9 17 5 9 1024.6 1024.4 0.2
28/10:30pm 12.2 11.5 11.5 95 0.4 NNE 6 9 3 5 1024.4 1024.3 0.2
28/10:00pm 12.4 12.1 11.5 94 0.5 NNE 4 6 2 3 1024.8 1024.6 0.2
28/09:30pm 12.8 12.0 11.7 93 0.6 NNE 7 13 4 7 1024.7 1024.5 0.2
28/09:00pm 13.0 12.5 11.9 93 0.6 N 6 9 3 5 1024.8 1024.6 0.2
28/08:30pm 13.4 13.2 11.8 90 0.9 NNE 4 4 2 2 1025.0 1024.9 0.0
28/08:00pm 13.9 13.6 11.4 85 1.4 NNE 4 7 2 4 1024.7 1024.5 0.0
28/07:30pm 13.6 13.2 11.2 85 1.3 NNE 4 6 2 3 1024.6 1024.4 0.0
28/07:00pm 13.2 13.2 11.2 88 1.1 ENE 2 4 1 2 1024.2 1024.1 0.0
28/06:30pm 13.5 13.9 11.3 86 1.2 CALM 0 0 0 0 1024.2 1024.1 0.0
28/06:00pm 13.7 14.0 11.0 84 1.5 CALM 0 0 0 0 1023.9 1023.8 0.0
28/05:30pm 14.1 14.4 10.8 80 1.8 CALM 0 0 0 0 1023.8 1023.6 0.0
28/05:00pm 15.1 15.0 10.7 75 2.4 N 2 2 1 1 1023.8 1023.6 0.0
28/04:30pm 15.7 15.4 10.2 70 3.0 N 2 6 1 3 1023.7 1023.5 0.0
28/04:00pm 16.3 15.9 9.9 66 3.5 NNW 2 7 1 4 1023.8 1023.6 0.0
28/03:30pm 16.2 15.5 10.0 66 3.4 NW 4 9 2 5 1023.7 1023.5 0.0
28/03:00pm 16.7 15.5 9.7 63 3.8 W 6 13 3 7 1023.8 1023.6 0.0
28/02:30pm 16.8 15.4 9.4 61 4.0 WNW 7 15 4 8 1023.8 1023.6 0.0
28/02:00pm 17.0 15.6 9.7 62 4.0 WNW 7 15 4 8 1023.7 1023.5 0.0
28/01:30pm 16.8 15.7 9.9 64 3.8 NW 6 11 3 6 1024.1 1024.0 0.0
28/01:00pm 16.9 14.8 9.8 63 3.9 N 11 19 6 10 1024.3 1024.2 0.0
28/12:30pm 17.1 15.3 9.6 61 4.1 NNW 9 19 5 10 1024.8 1024.6 0.0
28/12:00pm 16.2 14.5 10.0 66 3.4 NNW 9 17 5 9 1025.2 1025.1 0.0
28/11:30am 16.6 13.7 9.8 64 3.7 N 15 22 8 12 1025.5 1025.4 0.0
28/11:00am 16.8 14.0 10.1 64 3.7 N 15 22 8 12 1025.9 1025.7 0.0
28/10:30am 16.2 13.9 10.4 68 3.2 N 13 20 7 11 1026.2 1026.1 0.0
28/10:00am 15.7 14.1 10.2 70 3.0 N 9 17 5 9 1026.2 1026.1 0.0
28/09:30am 14.5 12.2 10.5 77 2.2 N 13 20 7 11 1026.4 1026.3 0.0
28/09:00am 14.3 12.3 10.2 76 2.2 N 11 19 6 10 1026.4 1026.3 0.0
28/08:30am 12.9 11.8 10.7 86 1.2 N 7 15 4 8 1026.1 1026.0 0.0
28/08:00am 11.8 10.7 10.5 92 0.7 N 7 13 4 7 1026.0 1025.9 0.0
28/07:30am 11.4 9.4 10.3 93 0.6 N 11 17 6 9 1025.6 1025.5 0.0
28/07:00am 11.1 9.1 10.2 94 0.5 N 11 22 6 12 1025.3 1025.2 0.0
28/06:30am 10.9 9.6 10.1 95 0.4 N 7 15 4 8 1025.2 1025.1 0.0
28/06:00am 10.0 9.2 9.6 97 0.2 NNE 4 9 2 5 1025.0 1024.9 0.0
28/05:30am 9.9 9.4 9.3 96 0.3 NNE 2 2 1 1 1024.9 1024.8 0.0
28/05:00am 11.4 11.2 10.3 93 0.6 NNE 2 4 1 2 1024.8 1024.6 0.0
28/04:30am 11.6 10.5 10.1 90 0.8 NNE 6 13 3 7 1024.6 1024.4 0.0
28/04:00am 11.6 10.0 10.1 90 0.8 NNE 9 17 5 9 1024.3 1024.2 0.0
28/03:30am 11.7 9.7 10.2 90 0.8 NNE 11 19 6 10 1024.8 1024.6 0.0
28/03:00am 11.8 10.6 10.3 90 0.8 NNE 7 13 4 7 1024.8 1024.6 0.0
28/02:30am 11.7 11.2 10.6 93 0.6 NE 4 7 2 4 1025.0 1024.9 0.0
28/02:00am 11.8 10.9 10.5 92 0.7 NNE 6 9 3 5 1025.0 1024.9 0.0
28/01:30am 11.8 10.7 10.5 92 0.7 NNE 7 13 4 7 1024.9 1024.8 0.0
28/01:00am 11.8 10.7 10.7 93 0.6 NNE 7 13 4 7 1024.9 1024.8 0.0
28/12:30am 11.7 10.8 10.6 93 0.6 NE 6 9 3 5 1024.9 1024.8 0.0
28/12:00am 11.5 11.0 10.8 95 0.4 NE 4 6 2 3 1025.3 1025.2 0.0
 
Date/Time
EST
Temp
°C
App
Temp
°C
Dew
Point
°C
Rel
Hum
%
Delta-T
°C
Wind Press
QNH
hPa
Press
MSL
hPa
Rain since
9am
mm
Dir  Spd
km/h
Gust
km/h
Spd
kts
Gust
kts
27/11:30pm 11.5 10.6 10.8 95 0.4 NE 6 9 3 5 1025.3 1025.2 0.0
27/11:00pm 11.6 10.7 10.7 94 0.5 NE 6 9 3 5 1025.6 1025.5 0.0
27/10:30pm 11.6 10.6 10.9 95 0.4 NE 7 13 4 7 1025.6 1025.5 0.0
27/10:00pm 11.6 10.7 10.7 94 0.5 ENE 6 9 3 5 1025.7 1025.6 0.0
27/09:30pm 11.7 10.6 10.8 94 0.5 ENE 7 13 4 7 1025.9 1025.7 0.0
27/09:00pm 11.7 10.8 10.8 94 0.5 NE 6 11 3 6 1025.7 1025.6 0.0
27/08:30pm 11.8 10.4 10.9 94 0.5 ENE 9 13 5 7 1025.3 1025.2 0.0
27/08:00pm 11.7 10.8 10.8 94 0.5 ENE 6 11 3 6 1025.5 1025.4 0.0
27/07:30pm 11.8 10.7 10.7 93 0.6 ENE 7 11 4 6 1025.2 1025.1 0.0
27/07:00pm 11.8 11.0 10.9 94 0.5 NE 6 9 3 5 1025.5 1025.4 0.0
27/06:30pm 12.0 11.1 10.7 92 0.7 ENE 6 11 3 6 1025.3 1025.2 0.0
27/06:00pm 12.0 11.5 10.7 92 0.7 ENE 4 7 2 4 1025.1 1025.0 0.0
27/05:30pm 11.9 11.0 10.6 92 0.7 ENE 6 9 3 5 1024.8 1024.6 0.0
27/05:00pm 12.4 11.3 10.7 89 0.9 ENE 7 13 4 7 1024.6 1024.4 0.0
27/04:30pm 13.3 12.4 10.7 84 1.4 ENE 6 11 3 6 1024.7 1024.5 0.0
27/04:00pm 14.0 13.1 10.5 79 1.9 ENE 6 13 3 7 1024.4 1024.3 0.0
27/03:30pm 14.9 13.8 10.5 75 2.4 NE 7 13 4 7 1024.4 1024.3 0.0
27/03:00pm 15.3 14.1 10.4 72 2.7 NE 7 13 4 7 1024.2 1024.1 0.0
27/02:30pm 15.0 13.8 10.4 74 2.5 NE 7 15 4 8 1024.6 1024.4 0.0
27/02:00pm 15.3 14.3 10.4 72 2.7 ENE 6 13 3 7 1024.7 1024.5 0.0
27/01:30pm 15.3 14.3 10.4 72 2.7 ENE 6 9 3 5 1024.9 1024.8 0.0
27/01:00pm 15.2 14.2 10.3 72 2.7 ENE 6 9 3 5 1025.2 1025.1 0.0
27/12:30pm 14.2 13.1 9.9 75 2.3 ENE 6 15 3 8 1025.5 1025.4 0.0
27/12:00pm 14.2 13.1 10.1 76 2.2 ENE 6 11 3 6 1026.0 1025.9 0.0
27/11:30am 13.2 11.9 9.8 80 1.8 ENE 7 13 4 7 1026.1 1026.0 0.0
27/11:00am 12.8 11.5 9.8 82 1.6 NE 7 11 4 6 1026.8 1026.7 0.0
27/10:30am 12.5 11.2 9.9 84 1.4 ENE 7 13 4 7 1027.1 1027.0 0.0
27/10:00am 11.9 10.5 9.6 86 1.2 ENE 7 13 4 7 1026.9 1026.9 0.0
27/09:30am 11.5 9.7 9.6 88 1.0 ENE 9 17 5 9 1026.9 1026.9 0.0
27/09:00am 11.0 9.6 9.7 92 0.7 ENE 7 13 4 7 1026.8 1026.7 0.0
27/08:30am 10.3 9.1 9.5 95 0.4 ENE 6 13 3 7 1026.5 1026.4 0.0
27/08:00am 9.7 8.2 9.3 97 0.2 ENE 7 15 4 8 1026.1 1026.0 0.0
27/07:30am 9.6 8.1 9.2 97 0.2 ENE 7 13 4 7 1026.0 1025.9 0.0
27/07:00am 9.3 8.0 9.1 99 0.1 ENE 6 9 3 5 1026.0 1025.9 0.0
27/06:30am 8.9 7.9 8.9 100 0.0 NE 4 9 2 5 1025.9 1025.7 0.0
27/06:00am 8.8 7.3 8.6 99 0.1 ENE 6 9 3 5 1025.6 1025.5 0.0
27/05:30am 9.1 7.7 8.9 99 0.1 ENE 6 11 3 6 1025.4 1025.3 0.0
27/05:00am 8.9 7.9 8.7 99 0.1 ENE 4 7 2 4 1024.8 1024.6 0.0
27/04:30am 8.8 7.8 8.8 100 0.0 ENE 4 9 2 5 1024.9 1024.8 0.0
27/04:00am 8.4 6.8 8.2 99 0.1 ENE 6 9 3 5 1024.7 1024.5 0.0
27/03:30am 8.3 6.8 8.3 100 0.0 ENE 6 11 3 6 1024.7 1024.5 0.0
27/03:00am 8.8 7.3 8.6 99 0.1 ENE 6 9 3 5 1024.7 1024.5 0.0
27/02:30am 7.7 5.9 7.3 97 0.2 ENE 6 7 3 4 1024.7 1024.5 0.0
27/02:00am 6.4 4.3 5.8 96 0.3 NE 6 7 3 4 1024.9 1024.8 0.0
27/01:30am 4.3 2.9 3.8 97 0.2 CALM 0 0 0 0 1025.1 1025.0 0.0
27/01:00am 4.3 3.0 4.1 99 0.1 CALM 0 2 0 1 1025.1 1025.0 0.0
27/12:30am 4.1 2.7 3.4 95 0.3 CALM 0 4 0 2 1025.1 1025.0 0.0
27/12:00am 3.9 2.5 3.4 97 0.2 CALM 0 0 0 0 1025.1 1025.0 0.0
 
Date/Time
EST
Temp
°C
App
Temp
°C
Dew
Point
°C
Rel
Hum
%
Delta-T
°C
Wind Press
QNH
hPa
Press
MSL
hPa
Rain since
9am
mm
Dir  Spd
km/h
Gust
km/h
Spd
kts
Gust
kts
26/11:30pm 2.8 1.2 2.3 96 0.2 CALM 0 0 0 0 1025.2 1025.1 0.0
26/11:00pm 3.4 1.5 2.7 95 0.3 NE 2 4 1 2 1025.2 1025.1 0.0
26/10:30pm 3.5 1.5 2.3 92 0.5 NE 2 4 1 2 1025.3 1025.2 0.0
26/10:00pm 2.7 0.6 2.0 95 0.3 N 2 6 1 3 1025.4 1025.3 0.0
26/09:30pm 3.4 1.4 2.4 93 0.4 NE 2 2 1 1 1025.2 1025.1 0.0
26/09:00pm 3.6 1.7 2.7 94 0.4 NE 2 4 1 2 1025.1 1025.0 0.0
26/08:30pm 3.8 2.2 2.6 92 0.5 CALM 0 0 0 0 1024.8 1024.6 0.0
26/08:00pm 4.3 2.4 3.1 92 0.5 NE 2 2 1 1 1024.4 1024.3 0.0
26/07:30pm 5.0 3.6 3.6 91 0.6 CALM 0 0 0 0 1024.3 1024.2 0.0
26/07:00pm 5.5 3.8 3.9 89 0.7 ENE 2 4 1 2 1024.0 1023.9 0.0
26/06:30pm 6.9 5.6 4.0 82 1.3 CALM 0 0 0 0 1023.7 1023.5 0.0
26/06:00pm 8.1 6.4 4.2 76 1.8 NNW 2 4 1 2 1023.2 1023.1 0.0
26/05:30pm 9.3 7.9 3.6 67 2.6 CALM 0 0 0 0 1022.7 1022.5 0.0
26/05:00pm 12.9 11.2 3.8 54 4.3 WSW 2 4 1 2 1022.7 1022.5 0.0
26/04:30pm 15.0 12.3 2.9 44 5.7 WSW 6 7 3 4 1022.5 1022.3 0.0
26/04:00pm 16.3 13.3 1.9 38 6.7 WSW 7 13 4 7 1022.4 1022.2 0.0
26/03:30pm 17.1 14.1 2.3 37 7.0 WSW 7 13 4 7 1022.2 1022.0 0.0
26/03:00pm 17.0 13.6 2.1 36 7.0 WSW 9 17 5 9 1021.9 1021.8 0.0
26/02:30pm 17.1 13.7 1.7 35 7.2 W 9 15 5 8 1021.9 1021.8 0.0
26/02:00pm 17.3 13.7 0.4 32 7.7 WSW 9 17 5 9 1021.9 1021.8 0.0
26/01:30pm 17.4 14.1 2.2 36 7.2 WSW 9 17 5 9 1021.8 1021.6 0.0
26/01:00pm 17.4 14.4 2.2 36 7.2 W 7 19 4 10 1022.3 1022.1 0.0
26/12:30pm 16.7 13.0 2.3 38 6.8 WSW 11 24 6 13 1022.6 1022.4 0.0
26/12:00pm 16.7 13.9 2.3 38 6.8 SW 6 15 3 8 1022.8 1022.6 0.0
26/11:30am 16.1 13.4 2.5 40 6.4 W 6 11 3 6 1023.1 1023.0 0.0
26/11:00am 15.8 12.9 1.7 38 6.5 SW 6 11 3 6 1023.6 1023.4 0.0
26/10:30am 15.2 12.4 2.0 41 6.1 SSW 6 9 3 5 1023.6 1023.4 0.0
26/10:00am 14.6 12.3 2.9 45 5.5 S 4 7 2 4 1023.7 1023.5 0.0
26/09:30am 13.4 12.5 6.2 61 3.6 CALM 0 0 0 0 1023.7 1023.5 0.0
26/09:00am 12.0 11.1 5.9 66 3.0 CALM 0 0 0 0 1023.6 1023.4 0.0

Other Formats:

Comma delimited format used in spreadsheet applications
http://www.bom.gov.au/fwo/IDQ60801/IDQ60801.94553.axf

JavaScript Object Notation format (JSON) in row-major order
http://www.bom.gov.au/fwo/IDQ60801/IDQ60801.94553.json